Time;durP1;ratioP1;P1;durP2;ratioP2;P2;SDS_P1;SDS_P2;PMS_P1;PMS_P2;Temp;Humidity;BMP_temperature;BMP_pressure;BME280_temperature;BME280_humidity;BME280_pressure;Samples;Min_cycle;Max_cycle;Signal;HPM_P1;HPM_P2
2022/06/14 00:01:56;;;;;;;15.73;12.05;;;;;;;20.27;79.94;100213.19;5014538;28;20110;-84
2022/06/14 00:04:23;;;;;;;20.30;11.88;;;;;;;20.37;80.69;100236.72;5017123;28;20049;-83
2022/06/14 00:06:48;;;;;;;20.73;13.27;;;;;;;20.51;80.88;100232.56;4993130;28;20064;-83
2022/06/14 00:09:15;;;;;;;22.98;13.90;;;;;;;20.12;81.35;100188.06;4997209;28;20029;-84
2022/06/14 00:11:43;;;;;;;17.45;10.95;;;;;;;19.99;83.28;100177.97;5018833;28;20037;-84
2022/06/14 00:14:10;;;;;;;28.50;15.43;;;;;;;20.54;79.80;100238.63;4992407;28;20077;-84
2022/06/14 00:16:44;;;;;;;24.95;14.52;;;;;;;20.53;80.66;100252.03;4997052;28;20057;-84
2022/06/14 00:19:16;;;;;;;26.35;16.42;;;;;;;20.31;80.33;100234.31;5013172;28;20056;-82
2022/06/14 00:21:42;;;;;;;26.23;15.25;;;;;;;20.40;80.10;100225.91;4996208;28;20087;-82
2022/06/14 00:24:09;;;;;;;35.78;20.52;;;;;;;20.09;81.73;100166.88;5014677;28;20481;-82
2022/06/14 00:26:35;;;;;;;12.48;9.52;;;;;;;20.37;83.21;100219.84;5014634;28;20042;-82
2022/06/14 00:29:02;;;;;;;18.35;11.20;;;;;;;19.93;83.73;100158.72;4998316;28;20130;-82
2022/06/14 00:31:28;;;;;;;16.90;11.77;;;;;;;19.89;84.39;100154.44;4996064;28;20057;-82
2022/06/14 00:34:02;;;;;;;12.02;10.23;;;;;;;20.21;85.07;100228.50;5009930;28;20170;-82
2022/06/14 00:36:32;;;;;;;11.07;9.88;;;;;;;20.12;85.38;100225.38;5010068;28;20053;-82
2022/06/14 00:39:04;;;;;;;12.85;9.82;;;;;;;19.55;83.35;100155.78;5016457;28;20025;-82
2022/06/14 00:41:44;;;;;;;11.80;9.43;;;;;;;20.25;82.39;100226.56;5014882;28;20053;-82
2022/06/14 00:44:26;;;;;;;10.82;9.13;;;;;;;19.78;83.37;100160.19;5013787;28;20045;-81
2022/06/14 00:46:58;;;;;;;12.95;10.02;;;;;;;19.70;82.84;100160.53;5025798;28;20062;-82
2022/06/14 00:49:33;;;;;;;13.45;11.02;;;;;;;20.22;82.42;100229.38;5012960;28;20053;-82
2022/06/14 00:52:09;;;;;;;12.65;11.20;;;;;;;20.17;82.28;100212.72;5013729;28;20045;-82
2022/06/14 00:54:45;;;;;;;15.65;11.40;;;;;;;20.11;81.98;100212.97;4997470;28;20045;-81
2022/06/14 00:57:18;;;;;;;12.85;10.45;;;;;;;19.63;84.24;100148.38;4991888;28;20041;-80
2022/06/14 00:59:49;;;;;;;15.73;11.07;;;;;;;19.86;85.03;100208.69;5012946;28;20072;-81
2022/06/14 01:02:22;;;;;;;14.15;11.20;;;;;;;19.81;85.31;100190.25;5017093;28;20049;-81
2022/06/14 01:06:43;;;;;;;14.98;10.88;;;;;;;19.77;85.62;100209.94;4777753;27;8365108;-83
2022/06/14 01:09:20;;;;;;;15.95;10.98;;;;;;;19.47;85.49;100156.13;5017937;28;20113;-82
2022/06/14 01:12:14;;;;;;;17.73;12.63;;;;;;;19.71;84.60;100196.84;5022688;28;21173;-84
2022/06/14 01:14:53;;;;;;;15.80;11.48;;;;;;;18.53;84.64;100041.94;5014258;28;20061;-82
2022/06/14 01:17:19;;;;;;;11.98;10.70;;;;;;;19.15;86.00;100129.03;5045772;28;20228;-81
2022/06/14 01:19:46;;;;;;;15.82;12.13;;;;;;;19.53;85.93;100195.81;5027820;28;20473;-81
2022/06/14 01:22:12;;;;;;;13.73;10.35;;;;;;;19.39;86.19;100176.88;5008639;28;20050;-83
2022/06/14 01:24:41;;;;;;;16.40;10.82;;;;;;;19.33;86.04;100151.34;5000109;28;20099;-81
2022/06/14 01:27:09;;;;;;;17.95;10.38;;;;;;;19.24;86.81;100148.22;5011235;28;20037;-82
2022/06/14 01:29:39;;;;;;;13.27;10.63;;;;;;;19.31;86.91;100169.16;5018154;28;20030;-82
2022/06/14 01:32:09;;;;;;;18.05;10.13;;;;;;;19.24;86.71;100162.38;5012134;28;20054;-82
2022/06/14 01:34:40;;;;;;;15.18;12.38;;;;;;;19.75;84.91;100219.78;5002058;28;20053;-82
2022/06/14 01:37:06;;;;;;;14.55;10.40;;;;;;;19.67;83.65;100195.25;5016252;28;20045;-82
2022/06/14 01:39:32;;;;;;;14.30;11.50;;;;;;;19.75;84.53;100219.78;5027099;28;20050;-83
2022/06/14 01:42:11;;;;;;;18.67;13.25;;;;;;;19.60;85.02;100186.63;5025722;28;20038;-83
2022/06/14 01:45:14;;;;;;;18.45;11.98;;;;;;;19.39;82.54;100148.47;5043475;28;20057;-81
2022/06/14 01:48:02;;;;;;;14.65;11.52;;;;;;;19.27;84.95;100125.03;5027422;28;20103;-81
2022/06/14 01:54:05;;;;;;;13.32;11.93;;;;;;;19.36;82.82;100156.56;5027912;28;20052;-82
2022/06/14 01:56:48;;;;;;;13.77;10.13;;;;;;;19.52;85.83;100186.06;5027212;28;20141;-83
2022/06/14 01:59:26;;;;;;;;;;;;;;;19.15;85.65;100142.34;5027976;28;20794;-85
2022/06/14 02:02:22;;;;;;;20.73;11.57;;;;;;;19.43;85.22;100186.44;5024218;28;19921;-83
2022/06/14 02:04:53;;;;;;;18.25;11.35;;;;;;;19.62;84.96;100218.53;5016092;28;20063;-83
2022/06/14 02:07:28;;;;;;;18.23;11.55;;;;;;;19.18;84.97;100174.13;5046480;28;20736;-83
2022/06/14 02:10:21;;;;;;;15.40;12.82;;;;;;;19.34;84.50;100201.00;5042926;28;20056;-84
2022/06/14 02:13:15;;;;;;;15.03;10.30;;;;;;;19.66;85.38;100237.88;5046370;28;20990;-82
2022/06/14 02:15:45;;;;;;;15.32;11.05;;;;;;;19.26;85.89;100180.94;5042076;28;20045;-83
2022/06/14 02:18:25;;;;;;;14.38;11.82;;;;;;;18.98;86.87;100152.75;5028681;28;20099;-82
2022/06/14 02:21:20;;;;;;;13.43;10.13;;;;;;;19.14;86.16;100161.00;5031000;28;20516;-82
2022/06/14 02:23:50;;;;;;;11.32;9.27;;;;;;;19.02;84.30;100129.59;5029307;28;20052;-82
2022/06/14 02:26:23;;;;;;;14.57;10.27;;;;;;;19.08;86.63;100150.59;5033431;28;20044;-82
2022/06/14 02:28:55;;;;;;;10.95;9.43;;;;;;;19.20;87.41;100198.03;5029604;28;20501;-85
2022/06/14 02:31:37;;;;;;;13.50;10.27;;;;;;;18.84;87.01;100157.75;5030037;28;20121;-82
2022/06/14 02:34:14;;;;;;;16.60;11.23;;;;;;;19.28;85.10;100211.00;5031740;28;20107;-83
2022/06/14 02:36:55;;;;;;;13.00;10.68;;;;;;;18.96;85.18;100147.53;5031579;28;20041;-82
2022/06/14 02:39:32;;;;;;;11.98;9.93;;;;;;;18.89;87.38;100161.94;5032226;28;20579;-84
2022/06/14 02:42:05;;;;;;;18.92;12.38;;;;;;;19.11;87.90;100207.22;5052021;28;20114;-81
2022/06/14 02:44:59;;;;;;;23.40;13.00;;;;;;;18.65;88.44;100150.44;5031424;28;20118;-83
2022/06/14 02:47:43;;;;;;;11.18;9.82;;;;;;;18.79;87.87;100188.97;5010119;28;20087;-81
2022/06/14 02:51:20;;;;;;;14.68;12.43;;;;;;;19.21;88.28;100230.81;5029638;28;20053;-82
2022/06/14 02:54:27;;;;;;;11.48;10.38;;;;;;;19.18;87.95;100235.31;5023667;28;20762;-81
2022/06/14 02:57:24;;;;;;;15.70;10.68;;;;;;;19.11;87.53;100231.16;4994776;28;20652;-81
2022/06/14 03:00:08;;;;;;;14.70;10.43;;;;;;;19.20;88.24;100243.25;4992034;28;20177;-82
2022/06/14 03:02:44;;;;;;;19.15;12.32;;;;;;;19.11;88.28;100230.28;5025458;28;20057;-81
2022/06/14 03:06:08;;;;;;;15.82;11.10;;;;;;;18.74;87.99;100162.50;5019717;28;20131;-82
2022/06/14 03:08:55;;;;;;;20.00;11.25;;;;;;;19.22;87.81;100249.34;5008496;28;20060;-81
2022/06/14 03:11:40;;;;;;;11.55;10.45;;;;;;;19.06;88.78;100240.22;5032840;28;20088;-82
2022/06/14 03:14:14;;;;;;;15.45;10.00;;;;;;;18.81;88.67;100195.94;5026114;28;20491;-82
2022/06/14 03:16:49;;;;;;;17.55;11.30;;;;;;;18.59;88.28;100181.69;5030646;28;20374;-80
2022/06/14 03:19:21;;;;;;;10.77;9.38;;;;;;;18.58;89.11;100191.44;5030453;28;20052;-81
2022/06/14 03:22:11;;;;;;;12.23;10.00;;;;;;;18.67;88.97;100191.09;5028505;28;20041;-82
2022/06/14 03:25:06;;;;;;;14.07;11.35;;;;;;;18.86;88.23;100211.72;5034147;28;20497;-82
2022/06/14 03:27:41;;;;;;;10.93;9.82;;;;;;;18.75;87.00;100199.69;5034310;28;20041;-83
2022/06/14 03:30:21;;;;;;;13.90;10.48;;;;;;;19.30;87.76;100273.88;5025926;28;20045;-84
2022/06/14 03:33:08;;;;;;;9.05;8.02;;;;;;;19.08;85.02;100212.66;5031113;28;20037;-82
2022/06/14 03:35:35;;;;;;;14.30;10.02;;;;;;;18.97;85.63;100189.13;5031333;28;20057;-82
2022/06/14 03:38:08;;;;;;;12.85;10.05;;;;;;;19.36;85.76;100257.69;5032435;28;20065;-81
2022/06/14 03:40:35;;;;;;;19.45;11.30;;;;;;;19.46;84.88;100247.53;5029819;28;20489;-80
2022/06/14 03:43:03;;;;;;;12.73;9.25;;;;;;;19.50;81.68;100257.16;5027960;28;20080;-83
2022/06/14 03:45:42;;;;;;;13.93;9.52;;;;;;;19.19;83.82;100202.44;5035704;28;20488;-84
2022/06/14 03:48:09;;;;;;;19.95;9.70;;;;;;;19.15;83.33;100189.31;5040289;28;20040;-81
2022/06/14 03:50:40;;;;;;;10.65;8.82;;;;;;;19.21;82.27;100197.09;5029328;28;20535;-83
2022/06/14 03:53:25;;;;;;;9.93;8.88;;;;;;;19.17;83.58;100199.00;5026004;28;20130;-83
2022/06/14 03:56:12;;;;;;;12.73;8.57;;;;;;;19.18;83.95;100187.44;5032483;28;20060;-82
2022/06/14 03:58:53;;;;;;;13.57;10.07;;;;;;;19.65;85.21;100250.34;5029026;28;20451;-84
2022/06/14 04:01:28;;;;;;;10.70;8.13;;;;;;;19.31;84.41;100200.25;5029316;28;20393;-82
2022/06/14 04:04:21;;;;;;;13.30;9.15;;;;;;;19.50;82.74;100230.53;5025728;28;20045;-83
2022/06/14 04:06:59;;;;;;;11.93;9.88;;;;;;;19.52;80.71;100220.66;5028897;28;20857;-84
2022/06/14 04:09:41;;;;;;;11.25;9.45;;;;;;;19.96;79.91;100281.94;5031826;28;20044;-85
2022/06/14 04:12:15;;;;;;;11.80;10.55;;;;;;;19.97;79.19;100257.06;5029597;28;20117;-82
2022/06/14 04:15:00;;;;;;;14.90;8.85;;;;;;;19.71;78.97;100218.16;5026783;28;20064;-84
2022/06/14 04:18:34;;;;;;;13.80;9.07;;;;;;;20.07;79.97;100265.53;5022652;28;20049;-82
2022/06/14 04:21:12;;;;;;;10.27;8.45;;;;;;;19.82;78.04;100228.38;5026839;28;20049;-81
2022/06/14 04:23:53;;;;;;;11.27;9.40;;;;;;;20.41;76.53;100306.72;5030914;28;20041;-82
2022/06/14 04:26:48;;;;;;;10.43;7.38;;;;;;;20.41;77.18;100296.06;5030849;28;20084;-83
2022/06/14 04:29:32;;;;;;;10.63;7.82;;;;;;;20.35;78.18;100296.34;5030047;28;20044;-82
2022/06/14 04:32:08;;;;;;;12.80;8.93;;;;;;;20.48;77.24;100299.34;5028087;28;20147;-82
2022/06/14 04:35:03;;;;;;;10.68;8.60;;;;;;;20.04;76.54;100223.00;5030975;28;20640;-82
2022/06/14 04:37:38;;;;;;;14.30;9.10;;;;;;;20.10;75.89;100237.88;5027512;28;20575;-82
2022/06/14 04:40:23;;;;;;;14.10;9.55;;;;;;;20.30;74.08;100239.69;5034737;28;20042;-84
2022/06/14 04:43:19;;;;;;;11.27;6.78;;;;;;;20.65;74.21;100276.41;5032779;28;20057;-84
2022/06/14 04:46:03;;;;;;;13.43;9.50;;;;;;;20.74;74.28;100301.78;5033587;28;20053;-82
2022/06/14 04:48:48;;;;;;;11.07;8.10;;;;;;;20.82;74.52;100294.31;5030162;28;20497;-82
2022/06/14 04:51:25;;;;;;;10.07;7.28;;;;;;;20.64;73.85;100258.66;5030858;28;20048;-83
2022/06/14 04:54:09;;;;;;;17.38;9.25;;;;;;;20.90;73.76;100277.94;5027108;28;20500;-81
2022/06/14 04:56:44;;;;;;;10.45;8.43;;;;;;;20.76;72.16;100246.56;5003087;28;20140;-81
2022/06/14 04:59:21;;;;;;;12.75;6.88;;;;;;;20.97;71.42;100284.75;5029455;28;20103;-82
2022/06/14 05:02:45;;;;;;;9.15;6.40;;;;;;;21.05;69.74;100261.28;5022949;28;20085;-83
2022/06/14 05:06:11;;;;;;;10.90;6.80;;;;;;;21.52;70.63;100315.19;4984192;28;20097;-83
2022/06/14 05:08:54;;;;;;;15.15;7.00;;;;;;;21.38;69.57;100254.44;5026672;28;20049;-82
2022/06/14 05:11:45;;;;;;;10.88;6.97;;;;;;;22.03;66.85;100300.28;5028426;28;20061;-82
2022/06/14 05:14:41;;;;;;;13.75;7.45;;;;;;;22.21;66.24;100325.25;5028578;28;20044;-84
2022/06/14 05:17:15;;;;;;;12.35;9.13;;;;;;;22.12;66.68;100265.97;5032544;28;20505;-83
2022/06/14 05:20:04;;;;;;;11.60;9.63;;;;;;;22.34;64.74;100256.88;5021419;28;20045;-83
2022/06/14 05:22:52;;;;;;;20.98;10.90;;;;;;;22.71;64.57;100266.53;5025499;28;20057;-81
2022/06/14 05:25:19;;;;;;;18.67;9.75;;;;;;;23.04;62.23;100310.31;5022352;28;20033;-80
2022/06/14 05:28:02;;;;;;;20.58;11.65;;;;;;;22.90;61.99;100261.06;5031547;28;20044;-82
2022/06/14 05:30:41;;;;;;;52.08;14.15;;;;;;;23.64;62.20;100317.78;5024179;28;20040;-80
2022/06/14 05:33:51;;;;;;;43.65;17.27;;;;;;;23.78;61.43;100332.16;5026396;28;20068;-80
2022/06/14 05:36:32;;;;;;;26.40;16.67;;;;;;;23.20;63.04;100259.50;5011823;28;20413;-82
2022/06/14 05:39:17;;;;;;;24.48;14.30;;;;;;;23.12;63.12;100279.53;5027844;28;20034;-82
2022/06/14 05:41:47;;;;;;;13.27;9.32;;;;;;;23.40;61.65;100280.69;5027226;28;20075;-73
2022/06/14 05:44:37;;;;;;;30.63;16.92;;;;;;;23.64;64.43;100328.50;5025073;28;20052;-77
2022/06/14 05:47:28;;;;;;;26.52;16.60;;;;;;;23.91;61.74;100329.66;5032804;28;20060;-76
2022/06/14 05:50:01;;;;;;;19.95;10.05;;;;;;;23.76;62.21;100318.00;5027352;28;20037;-84
2022/06/14 05:52:52;;;;;;;23.13;13.27;;;;;;;23.80;60.25;100318.66;5025380;28;20052;-85
2022/06/14 05:55:36;;;;;;;17.20;9.77;;;;;;;23.44;63.88;100321.56;5031391;28;20054;-88
2022/06/14 05:58:19;;;;;;;13.93;7.93;;;;;;;23.80;62.42;100313.31;5027624;28;20048;-87
2022/06/14 06:00:59;;;;;;;13.77;9.75;;;;;;;23.47;63.53;100247.25;5035647;28;20128;-88
2022/06/14 06:04:05;;;;;;;25.27;14.77;;;;;;;24.10;61.13;100317.88;5030214;28;20049;-89
2022/06/14 06:06:37;;;;;;;29.58;15.57;;;;;;;24.18;60.73;100332.53;5011121;28;20049;-86
2022/06/14 06:09:10;;;;;;;23.70;13.25;;;;;;;23.96;62.05;100276.63;5035645;28;20339;-88
2022/06/14 06:12:07;;;;;;;13.38;9.02;;;;;;;24.05;61.71;100290.47;5036295;28;20959;-86
2022/06/14 06:14:58;;;;;;;24.23;13.68;;;;;;;24.29;60.99;100328.41;5020046;28;20063;-87
2022/06/14 06:17:32;;;;;;;24.15;11.95;;;;;;;24.24;63.20;100336.72;5032452;28;20064;-88
2022/06/14 06:20:22;;;;;;;17.88;10.45;;;;;;;24.17;61.81;100335.34;5037255;28;20114;-87
2022/06/14 06:23:06;;;;;;;24.33;13.23;;;;;;;24.22;62.34;100338.63;5034609;28;20160;-87
2022/06/14 06:26:22;;;;;;;14.27;8.75;;;;;;;23.86;61.85;100277.25;5020566;28;20516;-89
2022/06/14 06:28:58;;;;;;;10.98;7.65;;;;;;;24.33;61.86;100359.47;5033633;28;20052;-87
2022/06/14 06:31:30;;;;;;;14.73;9.40;;;;;;;24.15;61.46;100308.59;5033118;28;20427;-88
2022/06/14 06:34:02;;;;;;;22.93;9.93;;;;;;;23.84;59.55;100290.75;5023738;28;20051;-87
2022/06/14 06:36:46;;;;;;;15.32;9.00;;;;;;;24.04;60.99;100292.28;5023063;28;20134;-88
2022/06/14 06:40:02;;;;;;;22.40;9.82;;;;;;;24.01;61.16;100301.34;5032730;28;20091;-87
2022/06/14 06:42:44;;;;;;;22.17;11.63;;;;;;;24.18;61.64;100310.25;4989989;28;20045;-85
2022/06/14 06:45:21;;;;;;;18.67;9.48;;;;;;;24.57;61.05;100358.03;5027722;28;20140;-88
2022/06/14 06:48:21;;;;;;;18.08;10.65;;;;;;;24.40;61.03;100318.75;5029487;28;20044;-86
2022/06/14 06:50:55;;;;;;;55.60;49.25;;;;;;;24.62;61.76;100371.19;5031198;28;20061;-86
2022/06/14 06:53:30;;;;;;;18.42;10.68;;;;;;;24.59;62.85;100366.84;5028703;28;20069;-82
2022/06/14 06:56:21;;;;;;;18.98;14.05;;;;;;;24.77;61.44;100374.75;5033771;28;20133;-83
2022/06/14 06:59:07;;;;;;;13.75;8.48;;;;;;;24.31;62.93;100303.22;5033005;28;20058;-82
2022/06/14 07:01:37;;;;;;;16.23;8.98;;;;;;;24.77;62.36;100361.34;5015085;28;20171;-85
2022/06/14 07:04:15;;;;;;;34.40;13.60;;;;;;;24.79;62.13;100379.06;5030659;28;20550;-86
2022/06/14 07:07:12;;;;;;;16.27;8.32;;;;;;;24.60;64.11;100365.03;5031319;28;20053;-86
2022/06/14 07:09:41;;;;;;;19.98;16.00;;;;;;;24.39;62.71;100313.47;5012144;28;20155;-86
2022/06/14 07:12:21;;;;;;;47.45;17.70;;;;;;;24.60;62.89;100368.56;5033621;28;20378;-86
2022/06/14 07:14:55;;;;;;;30.65;15.25;;;;;;;24.26;62.92;100318.72;5034491;28;20029;-87
2022/06/14 07:17:38;;;;;;;21.67;12.65;;;;;;;24.12;64.83;100327.56;5034901;28;20056;-87
2022/06/14 07:20:26;;;;;;;25.67;10.70;;;;;;;24.78;61.54;100381.88;5029563;28;20060;-88
2022/06/14 07:22:59;;;;;;;32.75;15.95;;;;;;;24.55;64.22;100370.66;5035385;28;20092;-89
2022/06/14 07:25:33;;;;;;;24.48;9.45;;;;;;;24.63;61.81;100371.09;5034385;28;20555;-89
2022/06/14 07:28:07;;;;;;;10.23;8.43;;;;;;;24.69;61.78;100374.38;5035610;28;20059;-88
2022/06/14 07:30:51;;;;;;;23.80;12.45;;;;;;;24.71;62.95;100401.97;5031697;28;20052;-89
2022/06/14 07:33:20;;;;;;;17.70;9.30;;;;;;;24.46;63.14;100394.47;5034910;28;20036;-88
2022/06/14 07:35:52;;;;;;;16.00;10.30;;;;;;;24.51;61.67;100341.44;5039886;28;20041;-91
2022/06/14 07:38:24;;;;;;;160.40;52.72;;;;;;;24.46;62.73;100330.94;5034376;28;20048;-89
2022/06/14 07:41:04;;;;;;;29.95;16.38;;;;;;;24.56;61.11;100344.69;5029612;28;20081;-85
2022/06/14 07:44:02;;;;;;;33.85;14.45;;;;;;;24.55;60.33;100330.44;5031981;28;20053;-85
2022/06/14 07:46:51;;;;;;;25.65;13.93;;;;;;;24.50;60.73;100339.72;5028642;28;20175;-89
2022/06/14 07:49:30;;;;;;;20.33;10.15;;;;;;;24.73;61.97;100375.91;5028978;28;20061;-86
2022/06/14 07:52:04;;;;;;;32.75;14.73;;;;;;;24.49;62.46;100351.38;5032770;28;20432;-88
2022/06/14 07:54:52;;;;;;;27.40;14.43;;;;;;;24.82;62.33;100394.16;5025213;28;20137;-89
2022/06/14 07:57:27;;;;;;;66.00;17.55;;;;;;;24.53;61.97;100353.78;5013100;28;20033;-87
2022/06/14 08:03:30;;;;;;;24.70;10.45;;;;;;;24.82;62.51;100383.44;5030516;28;20060;-85
2022/06/14 08:06:02;;;;;;;24.23;9.93;;;;;;;24.60;62.30;100348.94;5034473;28;20522;-87
2022/06/14 08:08:33;;;;;;;14.20;7.68;;;;;;;25.08;62.53;100391.72;5032090;28;20508;-87
2022/06/14 08:11:15;;;;;;;13.30;9.30;;;;;;;25.39;61.43;100390.72;5035866;28;20501;-86
2022/06/14 08:13:49;;;;;;;16.38;9.57;;;;;;;25.63;58.80;100378.44;5034456;28;20129;-88
2022/06/14 08:16:15;;;;;;;12.50;7.75;;;;;;;25.97;60.42;100410.41;5033966;28;20045;-85
2022/06/14 08:19:08;;;;;;;14.38;10.15;;;;;;;25.14;59.73;100341.16;5033670;28;20368;-87
2022/06/14 08:21:41;;;;;;;12.57;8.88;;;;;;;25.75;59.64;100397.44;5029222;28;20633;-86
2022/06/14 08:24:20;;;;;;;20.73;10.43;;;;;;;25.75;57.23;100392.06;5032536;28;20056;-89
2022/06/14 08:27:01;;;;;;;9.73;8.10;;;;;;;25.53;57.16;100347.72;5033560;28;20071;-88
2022/06/14 08:29:41;;;;;;;24.67;9.90;;;;;;;26.09;56.81;100406.91;5021454;28;20168;-86
2022/06/14 08:32:18;;;;;;;17.73;11.10;;;;;;;26.73;56.70;100402.66;5033291;28;20128;-89
2022/06/14 08:35:39;;;;;;;23.08;7.93;;;;;;;26.10;52.90;100334.19;5034942;28;20044;-86
2022/06/14 08:38:24;;;;;;;24.10;13.25;;;;;;;26.09;51.48;100342.38;5020165;28;20144;-89
2022/06/14 08:41:27;;;;;;;20.60;11.13;;;;;;;27.02;52.61;100415.09;5033218;28;20045;-86
2022/06/14 08:43:58;;;;;;;;;;;;;;;26.82;50.34;100374.25;5033141;28;20059;-86
2022/06/14 08:46:56;;;;;;;11.40;7.35;;;;;;;27.54;53.83;100380.03;5027731;28;19929;-82
2022/06/14 08:49:50;;;;;;;20.77;10.18;;;;;;;28.07;51.06;100400.53;5031958;28;20075;-83
2022/06/14 08:52:58;;;;;;;17.00;8.73;;;;;;;28.47;48.64;100400.31;5032554;28;20055;-83
2022/06/14 08:55:58;;;;;;;21.75;7.82;;;;;;;28.66;50.22;100367.38;4937093;28;20111;-83
2022/06/14 08:59:01;;;;;;;17.42;8.05;;;;;;;27.78;47.42;100315.38;5015504;28;20049;-82
2022/06/14 09:01:53;;;;;;;28.63;14.98;;;;;;;28.36;46.89;100291.28;4964184;28;20165;-83
2022/06/14 09:04:39;;;;;;;36.17;18.13;;;;;;;29.39;47.66;100395.94;4962927;28;20095;-82
2022/06/14 09:07:04;;;;;;;14.32;9.40;;;;;;;29.27;47.90;100395.09;5027052;28;20064;-81
2022/06/14 09:09:50;;;;;;;31.08;17.88;;;;;;;29.77;46.52;100392.06;5027840;28;20049;-82
2022/06/14 09:12:38;;;;;;;29.60;15.43;;;;;;;29.97;45.91;100385.88;5029678;28;20033;-81
2022/06/14 09:15:27;;;;;;;34.63;17.00;;;;;;;29.35;46.37;100397.16;5004704;28;20183;-83
2022/06/14 09:18:12;;;;;;;22.80;13.82;;;;;;;29.81;46.34;100399.78;5033876;28;20069;-82
2022/06/14 09:20:53;;;;;;;61.92;17.65;;;;;;;30.09;46.07;100346.13;5041569;28;20044;-83
2022/06/14 09:23:55;;;;;;;18.13;11.27;;;;;;;29.43;47.09;100337.94;5032541;28;20677;-82
2022/06/14 09:26:41;;;;;;;29.70;15.57;;;;;;;30.07;45.92;100394.09;5034089;28;20095;-83
2022/06/14 09:29:44;;;;;;;194.05;41.75;;;;;;;30.35;44.40;100411.66;5039462;28;20056;-81
2022/06/14 09:32:29;;;;;;;;;;;;;;;28.79;46.30;100408.66;5021985;28;20068;-82
2022/06/14 09:35:05;;;;;;;53.15;25.05;;;;;;;30.47;45.96;100348.34;5035033;28;20707;-82
2022/06/14 09:38:05;;;;;;;38.88;18.58;;;;;;;29.84;44.85;100360.81;5041092;28;20107;-83
2022/06/14 09:40:40;;;;;;;54.42;25.58;;;;;;;30.55;43.61;100344.97;5011712;28;20095;-82
2022/06/14 09:43:18;;;;;;;51.65;26.52;;;;;;;29.65;42.93;100366.81;5039114;28;20094;-81
2022/06/14 09:46:15;;;;;;;39.30;19.60;;;;;;;30.32;43.78;100337.94;5025981;28;20108;-83
2022/06/14 09:49:08;;;;;;;36.80;17.67;;;;;;;30.37;41.90;100354.66;5025081;28;20049;-87
2022/06/14 09:51:35;;;;;;;48.03;27.60;;;;;;;30.65;42.80;100343.22;5034516;28;20139;-89
2022/06/14 09:54:38;;;;;;;36.25;20.67;;;;;;;30.60;41.87;100398.75;5038078;28;20111;-89
2022/06/14 09:57:22;;;;;;;;;;;;;;;30.50;40.94;100388.69;5024527;28;20045;-88
2022/06/14 10:00:15;;;;;;;51.78;25.50;;;;;;;30.42;42.61;100347.03;5038251;28;20341;-87
2022/06/14 10:02:54;;;;;;;49.13;23.45;;;;;;;29.46;44.33;100329.59;5036714;28;20455;-85
2022/06/14 10:05:44;;;;;;;92.30;31.35;;;;;;;30.04;43.61;100342.91;5037736;28;20060;-88
2022/06/14 10:08:52;;;;;;;90.55;44.25;;;;;;;31.07;41.17;100404.69;5024010;28;20053;-87
2022/06/14 10:11:36;;;;;;;137.05;57.45;;;;;;;29.67;41.30;100373.00;4965882;28;20641;-89
2022/06/14 10:14:27;;;;;;;135.18;62.22;;;;;;;28.93;40.80;100369.78;4963910;28;20121;-87
2022/06/14 10:17:03;;;;;;;274.67;111.55;;;;;;;30.07;39.67;100372.44;4946090;28;20042;-90
2022/06/14 10:20:04;;;;;;;230.23;86.68;;;;;;;31.28;40.26;100366.72;4945560;28;20094;-88
2022/06/14 10:22:58;;;;;;;246.75;104.82;;;;;;;31.40;39.92;100372.91;4955996;28;20043;-86
2022/06/14 10:29:21;;;;;;;209.93;91.00;;;;;;;30.83;41.37;100319.06;4987368;28;20083;-86
2022/06/14 10:32:05;;;;;;;353.23;137.88;;;;;;;31.27;40.76;100318.94;5041047;28;20119;-85
2022/06/14 10:34:44;;;;;;;322.10;132.82;;;;;;;31.31;40.61;100351.06;5034060;28;20068;-87
2022/06/14 10:37:43;;;;;;;359.15;158.93;;;;;;;30.98;41.84;100297.13;5032481;28;20643;-90
2022/06/14 10:40:19;;;;;;;319.80;120.50;;;;;;;31.06;44.08;100290.00;5030451;28;20044;-87
2022/06/14 10:43:21;;;;;;;238.60;106.90;;;;;;;30.20;45.34;100278.38;5034512;28;20136;-90
2022/06/14 10:45:57;;;;;;;167.95;76.75;;;;;;;30.02;45.52;100361.16;5036685;28;20056;-88
2022/06/14 10:48:50;;;;;;;266.48;101.55;;;;;;;29.95;45.03;100351.81;5038546;28;20033;-87
2022/06/14 10:51:59;;;;;;;216.32;102.15;;;;;;;30.45;45.96;100344.91;5034086;28;20132;-86
2022/06/14 10:54:24;;;;;;;159.13;69.10;;;;;;;28.31;49.06;100346.59;5040915;28;20041;-85
2022/06/14 10:57:08;;;;;;;226.07;89.32;;;;;;;29.38;47.50;100286.94;5039738;28;20804;-85
2022/06/14 10:59:50;;;;;;;296.42;127.70;;;;;;;29.54;46.48;100339.78;5030342;28;20033;-91
2022/06/14 11:02:30;;;;;;;276.02;107.88;;;;;;;30.19;45.31;100338.09;5034841;28;20056;-86
2022/06/14 11:05:22;;;;;;;165.48;85.15;;;;;;;28.77;47.93;100306.16;5026190;28;20045;-88
2022/06/14 11:08:22;;;;;;;165.55;85.55;;;;;;;28.88;47.40;100269.34;5033921;28;20433;-88
2022/06/14 11:11:22;;;;;;;264.80;101.88;;;;;;;29.20;47.68;100331.69;5036985;28;20667;-89
2022/06/14 11:14:14;;;;;;;315.35;117.90;;;;;;;29.49;46.58;100298.75;5051974;28;20071;-89
2022/06/14 11:16:44;;;;;;;187.55;66.35;;;;;;;30.27;46.03;100327.50;5038714;28;20344;-85
2022/06/14 11:22:03;;;;;;;200.48;87.88;;;;;;;28.92;48.82;100254.63;5034118;28;20723;-87
2022/06/14 11:25:22;;;;;;;119.88;61.83;;;;;;;28.79;50.24;100285.28;5038158;28;20064;-87
2022/06/14 11:28:36;;;;;;;140.98;67.13;;;;;;;28.85;50.43;100329.03;4982610;28;20055;-90
2022/06/14 11:31:26;;;;;;;145.05;61.33;;;;;;;27.78;50.83;100212.03;4993723;28;20094;-91
2022/06/14 11:34:25;;;;;;;159.52;80.50;;;;;;;27.90;50.68;100246.19;5035730;28;20057;-88
2022/06/14 11:37:23;;;;;;;135.02;57.38;;;;;;;28.34;50.85;100325.63;5035652;28;20041;-89
2022/06/14 11:40:19;;;;;;;124.18;64.65;;;;;;;28.07;50.26;100298.03;5027532;28;20111;-89
2022/06/14 11:43:21;;;;;;;96.55;47.13;;;;;;;27.87;50.85;100292.28;5031014;28;20041;-88
2022/06/14 11:45:55;;;;;;;129.90;53.20;;;;;;;27.83;52.10;100290.78;5026640;28;20060;-88
2022/06/14 11:49:14;;;;;;;140.48;60.88;;;;;;;27.99;52.53;100317.47;5026140;28;20428;-89
2022/06/14 11:51:59;;;;;;;114.53;48.85;;;;;;;27.07;50.86;100235.22;5036067;28;20049;-88
2022/06/14 11:54:45;;;;;;;120.10;61.67;;;;;;;27.26;50.81;100253.63;5037437;28;20114;-88
2022/06/14 11:57:42;;;;;;;96.35;44.88;;;;;;;27.62;51.36;100309.38;5038634;28;20043;-89
2022/06/14 12:00:35;;;;;;;134.50;57.67;;;;;;;27.73;51.58;100322.94;5036825;28;20036;-87
2022/06/14 12:03:07;;;;;;;;;;;;;;;27.70;51.91;100322.31;5037309;28;20048;-86
2022/06/14 12:05:50;;;;;;;183.15;86.25;;;;;;;27.09;52.05;100247.59;5023945;28;19925;-87
2022/06/14 12:08:31;;;;;;;125.57;64.03;;;;;;;27.69;52.85;100315.19;5035308;28;20049;-86
2022/06/14 12:11:34;;;;;;;116.55;60.95;;;;;;;27.20;52.66;100281.00;5032995;28;20056;-88
2022/06/14 12:14:38;;;;;;;79.97;38.60;;;;;;;27.35;52.20;100291.53;5033489;28;20045;-85
2022/06/14 12:17:45;;;;;;;151.15;63.72;;;;;;;27.21;52.32;100320.47;5028657;28;20571;-89
2022/06/14 12:21:00;;;;;;;139.23;63.95;;;;;;;26.73;52.68;100234.91;5031949;28;20580;-89
2022/06/14 12:23:48;;;;;;;94.60;45.38;;;;;;;26.63;53.74;100248.13;5005518;28;20044;-84
2022/06/14 12:26:44;;;;;;;177.68;86.50;;;;;;;26.95;52.66;100283.59;5035733;28;20064;-85
2022/06/14 12:29:29;;;;;;;114.68;45.47;;;;;;;26.67;53.17;100248.81;5032910;28;20142;-83
2022/06/14 12:32:20;;;;;;;153.48;73.72;;;;;;;26.39;53.25;100239.91;5030393;28;20037;-85
2022/06/14 12:34:50;;;;;;;193.13;91.97;;;;;;;26.78;55.87;100283.88;5033110;28;20052;-83
2022/06/14 12:38:01;;;;;;;117.40;55.13;;;;;;;26.23;60.20;100288.50;5035049;28;20056;-84
2022/06/14 12:41:17;;;;;;;91.07;44.30;;;;;;;25.45;63.35;100229.13;5034839;28;20048;-85
2022/06/14 12:44:13;;;;;;;117.22;62.70;;;;;;;25.46;64.42;100284.59;5016074;28;20045;-83